TAF KALB
KALB 090523Z 0906/1006 29008KT P6SM BKN040 TEMPO 0906/0908 3SM -SN BR BKN025 OVC035 FM091200 29005KT P6SM SCT040 FM091800 31009KT P6SM OVC100 FM092200 VRB03KT P6SM OVC070=
METAR KALB
WC KALB
WS KALB
WV KALB